Darstellungsparameter: Aktuell verwendete Einstellungen:
Skalierung der Graphiken ... ?
xyx+y,   Skalierungsfaktor:      Skalierung: Modus: x, Faktor: 1
Darstellungszeitraum ... ?
Vom - - bis: - -   Zeitraum: 26.06.2019 - 26.06.2019
Min/Max/Avg-Anzeige ... ?
Zeige MMA aktuell
Zeige MMA Monat
Zeige MMA alles
Zeige --A aktuell
Zeige --A Monat
Zeige --A alles
Keine MMA-Anzeige
MMA:
Average (ber die Originaldaten)
MMA-Basis: 26.06.2019 - 26.06.2019
Quicknavigation für Darstellung... ?
Tage:      1T, 2T, 3T, 5T -1T -2T -3T -5T +1T +2T +3T +5T
Wochen: 1W, 2W, 3W -1W -2W -3W +1W +2W +3W
Monate: 1M, 3M, 6M -1M -3M -6M +1M +3M +6M
Jahre:    1J, 3J, 5J, 10J -1J -3J -5J -10J +1J +3J +5J +10J
Nutze für die Darstellung ... ?
Originaldaten oder Mittelwerte auf ...
Stundenbasis Tagesbasis Wochenbasis
Monatsbasis Jahresbasis      Datenbasis: Original-Daten
Darstellen als:
Statistik (Auto) Statistik J:M      Darstellung:
Zur Graphik,    zurück zur Übersicht aller Sensoren.
 
Tabellarische Datenbersicht: ?
 
Sensor: Nr:Datum:Temp:Abs-Feuchte:Windchill:Wind:
Aussen-T/F 1 26-06-2019 00:00:00 23.9 C 14.49 g/m*3 23.9 C 0 km/h
2 26-06-2019 00:05:00 23.8 C 14.2 g/m*3 23.8 C 0 km/h
3 26-06-2019 00:10:00 23.7 C 14.54 g/m*3 23.7 C 0 km/h
4 26-06-2019 00:15:00 23.6 C 14.68 g/m*3 23.6 C 0 km/h
5 26-06-2019 00:20:00 23.5 C 14.8 g/m*3 23.5 C 0 km/h
6 26-06-2019 00:25:00 23.4 C 14.72 g/m*3 23.4 C 0 km/h
7 26-06-2019 00:30:00 23.3 C 14.43 g/m*3 23.3 C 0 km/h
8 26-06-2019 00:35:00 23.3 C 14.64 g/m*3 23.3 C 0 km/h
9 26-06-2019 00:40:00 23.2 C 14.55 g/m*3 23.2 C 0 km/h
10 26-06-2019 00:45:00 23.1 C 14.68 g/m*3 23.1 C 0 km/h
11 26-06-2019 00:50:00 23.1 C 14.88 g/m*3 23.1 C 1.6 km/h
12 26-06-2019 00:55:00 23.1 C 14.88 g/m*3 23.1 C 0 km/h
13 26-06-2019 01:00:00 22.9 C 14.71 g/m*3 22.9 C 1.6 km/h
14 26-06-2019 01:05:00 22.9 C 14.92 g/m*3 22.9 C 3.2 km/h
15 26-06-2019 01:10:00 22.9 C 14.92 g/m*3 22.9 C 0 km/h
16 26-06-2019 01:15:00 22.8 C 14.63 g/m*3 22.8 C 0 km/h
17 26-06-2019 01:20:00 22.7 C 14.55 g/m*3 22.7 C 0 km/h
18 26-06-2019 01:25:00 22.5 C 14.58 g/m*3 22.5 C 0 km/h
19 26-06-2019 01:30:00 22.3 C 14.61 g/m*3 22.3 C 0 km/h
20 26-06-2019 01:35:00 22.1 C 14.64 g/m*3 22.1 C 0 km/h
21 26-06-2019 01:40:00 22 C 14.75 g/m*3 22 C 0 km/h
22 26-06-2019 01:45:00 21.9 C 14.67 g/m*3 21.9 C 1.6 km/h
23 26-06-2019 01:50:00 21.8 C 14.77 g/m*3 21.8 C 6.4 km/h
24 26-06-2019 01:55:00 21.8 C 14.77 g/m*3 21.8 C 0 km/h
25 26-06-2019 02:00:00 21.7 C 14.69 g/m*3 21.7 C 0 km/h
Sensor: Nr:Datum:Temp:Abs-Feuchte:Windchill:Wind:
Aussen-T/F 26 26-06-2019 02:05:00 21.6 C 14.6 g/m*3 21.6 C 0 km/h
27 26-06-2019 02:10:00 21.5 C 14.71 g/m*3 21.5 C 0 km/h
28 26-06-2019 02:15:00 21.3 C 14.54 g/m*3 21.3 C 0 km/h
29 26-06-2019 02:20:00 21.3 C 14.73 g/m*3 21.3 C 0 km/h
30 26-06-2019 02:25:00 21.2 C 14.64 g/m*3 21.2 C 0 km/h
31 26-06-2019 02:30:00 21.2 C 14.64 g/m*3 21.2 C 0 km/h
32 26-06-2019 02:35:00 21.1 C 14.56 g/m*3 21.1 C 0 km/h
33 26-06-2019 02:40:00 21 C 14.65 g/m*3 21 C 0 km/h
34 26-06-2019 02:45:00 20.9 C 14.57 g/m*3 20.9 C 0 km/h
35 26-06-2019 02:50:00 20.9 C 14.75 g/m*3 20.9 C 1.6 km/h
36 26-06-2019 02:55:00 20.8 C 14.67 g/m*3 20.8 C 3.2 km/h
37 26-06-2019 03:00:00 20.8 C 14.67 g/m*3 20.8 C 1.6 km/h
38 26-06-2019 03:05:00 20.7 C 14.58 g/m*3 20.7 C 0 km/h
39 26-06-2019 03:10:00 20.7 C 14.58 g/m*3 20.7 C 1.6 km/h
40 26-06-2019 03:15:00 20.7 C 14.76 g/m*3 20.7 C 0 km/h
41 26-06-2019 03:20:00 20.7 C 14.76 g/m*3 20.7 C 0 km/h
42 26-06-2019 03:25:00 20.7 C 14.76 g/m*3 20.7 C 0 km/h
43 26-06-2019 03:30:00 20.7 C 14.76 g/m*3 20.7 C 0 km/h
44 26-06-2019 03:35:00 20.6 C 14.68 g/m*3 20.6 C 0 km/h
45 26-06-2019 03:40:00 20.4 C 14.51 g/m*3 20.4 C 1.6 km/h
46 26-06-2019 03:45:00 20.3 C 14.42 g/m*3 20.3 C 0 km/h
47 26-06-2019 03:50:00 20.3 C 14.6 g/m*3 20.3 C 0 km/h
48 26-06-2019 03:55:00 20.3 C 14.6 g/m*3 20.3 C 0 km/h
49 26-06-2019 04:00:00 20.3 C 14.6 g/m*3 20.3 C 0 km/h
50 26-06-2019 04:05:00 20.2 C 14.51 g/m*3 20.2 C 0 km/h
Sensor: Nr:Datum:Temp:Abs-Feuchte:Windchill:Wind:
Aussen-T/F 51 26-06-2019 04:10:00 20.1 C 14.43 g/m*3 20.1 C 0 km/h
52 26-06-2019 04:15:00 19.9 C 14.26 g/m*3 19.9 C 0 km/h
53 26-06-2019 04:20:00 19.9 C 14.43 g/m*3 19.9 C 0 km/h
54 26-06-2019 04:25:00 19.8 C 14.52 g/m*3 19.8 C 0 km/h
55 26-06-2019 04:30:00 19.8 C 14.52 g/m*3 19.8 C 0 km/h
56 26-06-2019 04:35:00 19.7 C 14.43 g/m*3 19.7 C 0 km/h
57 26-06-2019 04:40:00 19.6 C 14.35 g/m*3 19.6 C 0 km/h
58 26-06-2019 04:45:00 19.6 C 14.35 g/m*3 19.6 C 0 km/h
59 26-06-2019 04:50:00 19.5 C 14.43 g/m*3 19.5 C 0 km/h
60 26-06-2019 04:55:00 19.5 C 14.43 g/m*3 19.5 C 0 km/h
61 26-06-2019 05:00:00 19.4 C 14.35 g/m*3 19.4 C 0 km/h
62 26-06-2019 05:05:00 19.4 C 14.35 g/m*3 19.4 C 0 km/h
63 26-06-2019 05:10:00 19.4 C 14.52 g/m*3 19.4 C 4.8 km/h
64 26-06-2019 05:15:00 19.5 C 14.43 g/m*3 19.5 C 0 km/h
65 26-06-2019 05:20:00 19.6 C 14.52 g/m*3 19.6 C 0 km/h
66 26-06-2019 05:25:00 19.6 C 14.52 g/m*3 19.6 C 0 km/h
67 26-06-2019 05:30:00 19.5 C 14.43 g/m*3 19.5 C 1.6 km/h
68 26-06-2019 05:35:00 19.5 C 14.6 g/m*3 19.5 C 0 km/h
69 26-06-2019 05:40:00 19.5 C 14.6 g/m*3 19.5 C 0 km/h
70 26-06-2019 05:45:00 19.5 C 14.6 g/m*3 19.5 C 0 km/h
71 26-06-2019 05:50:00 19.4 C 14.52 g/m*3 19.4 C 0 km/h
72 26-06-2019 05:55:00 19.4 C 14.52 g/m*3 19.4 C 1.6 km/h
73 26-06-2019 06:00:00 19.5 C 14.6 g/m*3 19.5 C 0 km/h
74 26-06-2019 06:05:00 19.4 C 14.52 g/m*3 19.4 C 0 km/h
75 26-06-2019 06:10:00 19.4 C 14.68 g/m*3 19.4 C 0 km/h
Sensor: Nr:Datum:Temp:Abs-Feuchte:Windchill:Wind:
Aussen-T/F 76 26-06-2019 06:15:00 19.4 C 14.68 g/m*3 19.4 C 0 km/h
77 26-06-2019 06:20:00 19.5 C 14.77 g/m*3 19.5 C 0 km/h
78 26-06-2019 06:25:00 19.5 C 14.77 g/m*3 19.5 C 1.6 km/h
79 26-06-2019 06:30:00 19.6 C 14.86 g/m*3 19.6 C 0 km/h
80 26-06-2019 06:35:00 19.6 C 14.86 g/m*3 19.6 C 0 km/h
81 26-06-2019 06:40:00 19.7 C 14.94 g/m*3 19.7 C 0 km/h
82 26-06-2019 06:45:00 19.7 C 14.94 g/m*3 19.7 C 0 km/h
83 26-06-2019 06:50:00 19.8 C 15.03 g/m*3 19.8 C 0 km/h
84 26-06-2019 06:55:00 19.8 C 15.03 g/m*3 19.8 C 1.6 km/h
85 26-06-2019 07:00:00 19.8 C 15.03 g/m*3 19.8 C 1.6 km/h
86 26-06-2019 07:05:00 19.9 C 15.12 g/m*3 19.9 C 0 km/h
87 26-06-2019 07:10:00 20 C 15.21 g/m*3 20 C 0 km/h
88 26-06-2019 07:15:00 20.1 C 15.3 g/m*3 20.1 C 0 km/h
89 26-06-2019 07:20:00 20.2 C 15.39 g/m*3 20.2 C 1.6 km/h
90 26-06-2019 07:25:00 20.2 C 15.39 g/m*3 20.2 C 0 km/h
91 26-06-2019 08:40:00 22.3 C 17.38 g/m*3 22.3 C 0 km/h
92 26-06-2019 08:45:00 22.6 C 17.48 g/m*3 22.6 C 0 km/h
93 26-06-2019 08:50:00 22.8 C 17.88 g/m*3 22.8 C 0 km/h
94 26-06-2019 08:55:00 23.1 C 17.98 g/m*3 23.1 C 0 km/h
95 26-06-2019 09:00:00 23.2 C 18.29 g/m*3 23.2 C 0 km/h
96 26-06-2019 09:05:00 23.4 C 18.5 g/m*3 23.4 C 0 km/h
97 26-06-2019 09:10:00 23.6 C 18.29 g/m*3 23.6 C 1.6 km/h
98 26-06-2019 09:15:00 23.9 C 18.6 g/m*3 23.9 C 4.8 km/h
99 26-06-2019 09:20:00 24.2 C 18.7 g/m*3 24.2 C 1.6 km/h
100 26-06-2019 09:25:00 24.4 C 18.69 g/m*3 24.4 C 0 km/h
Sensor: Nr:Datum:Temp:Abs-Feuchte:Windchill:Wind:
Aussen-T/F 101 26-06-2019 09:30:00 24.8 C 18.89 g/m*3 24.8 C 6.4 km/h
102 26-06-2019 09:35:00 25.1 C 18.75 g/m*3 25.1 C 9.7 km/h
103 26-06-2019 09:40:00 25.4 C 18.83 g/m*3 25.4 C 9.7 km/h
104 26-06-2019 09:45:00 25.7 C 18.91 g/m*3 25.7 C 4.8 km/h
105 26-06-2019 09:50:00 25.9 C 18.88 g/m*3 25.9 C 6.4 km/h
106 26-06-2019 09:55:00 26.1 C 19.1 g/m*3 26.1 C 4.8 km/h
107 26-06-2019 10:00:00 26.2 C 18.96 g/m*3 26.2 C 3.2 km/h
108 26-06-2019 10:05:00 26.3 C 18.81 g/m*3 26.3 C 8.1 km/h
109 26-06-2019 10:10:00 26.5 C 19.02 g/m*3 26.5 C 4.8 km/h
110 26-06-2019 10:15:00 26.7 C 18.98 g/m*3 26.7 C 3.2 km/h
111 26-06-2019 10:20:00 26.8 C 19.34 g/m*3 26.8 C 3.2 km/h
112 26-06-2019 10:25:00 27.1 C 19.15 g/m*3 27.1 C 4.8 km/h
113 26-06-2019 10:30:00 27.3 C 19.62 g/m*3 27.3 C 3.2 km/h
114 26-06-2019 10:35:00 27.6 C 19.69 g/m*3 27.6 C 1.6 km/h
115 26-06-2019 10:40:00 27.9 C 19.47 g/m*3 27.9 C 3.2 km/h
116 26-06-2019 10:45:00 28.1 C 19.69 g/m*3 28.1 C 4.8 km/h
117 26-06-2019 10:50:00 28.2 C 19.52 g/m*3 28.2 C 4.8 km/h
118 26-06-2019 10:55:00 28.3 C 19.63 g/m*3 28.3 C 6.4 km/h
119 26-06-2019 11:00:00 28.4 C 19.46 g/m*3 28.4 C 8.1 km/h
120 26-06-2019 11:05:00 28.5 C 19.56 g/m*3 28.5 C 4.8 km/h
121 26-06-2019 11:10:00 28.6 C 19.39 g/m*3 28.6 C 6.4 km/h
122 26-06-2019 11:15:00 28.7 C 19.5 g/m*3 28.7 C 6.4 km/h
123 26-06-2019 11:20:00 28.8 C 19.32 g/m*3 28.8 C 6.4 km/h
124 26-06-2019 11:25:00 28.9 C 19.71 g/m*3 28.9 C 3.2 km/h
125 26-06-2019 11:30:00 28.9 C 19.43 g/m*3 28.9 C 9.7 km/h
Sensor: Nr:Datum:Temp:Abs-Feuchte:Windchill:Wind:
Aussen-T/F 126 26-06-2019 11:35:00 29.1 C 19.35 g/m*3 29.1 C 6.4 km/h
127 26-06-2019 11:40:00 29.2 C 19.46 g/m*3 29.2 C 11.3 km/h
128 26-06-2019 11:45:00 29.3 C 19.56 g/m*3 29.3 C 11.3 km/h
129 26-06-2019 11:50:00 29.4 C 19.67 g/m*3 29.4 C 8.1 km/h
130 26-06-2019 11:55:00 29.6 C 19.88 g/m*3 29.6 C 4.8 km/h
131 26-06-2019 12:00:00 29.7 C 19.69 g/m*3 29.7 C 9.7 km/h
132 26-06-2019 12:05:00 29.7 C 19.39 g/m*3 29.7 C 4.8 km/h
133 26-06-2019 12:10:00 29.8 C 19.8 g/m*3 29.8 C 8.1 km/h
134 26-06-2019 12:15:00 30 C 19.71 g/m*3 30 C 4.8 km/h
135 26-06-2019 12:20:00 30.1 C 19.51 g/m*3 30.1 C 8.1 km/h
136 26-06-2019 12:25:00 30.2 C 19.62 g/m*3 30.2 C 6.4 km/h
137 26-06-2019 12:30:00 30.3 C 19.11 g/m*3 30.3 C 8.1 km/h
138 26-06-2019 12:35:00 30.4 C 19.52 g/m*3 30.4 C 4.8 km/h
139 26-06-2019 12:40:00 30.4 C 18.9 g/m*3 30.4 C 4.8 km/h
140 26-06-2019 12:45:00 30.6 C 19.11 g/m*3 30.6 C 4.8 km/h
141 26-06-2019 12:50:00 30.8 C 18.68 g/m*3 30.8 C 6.4 km/h
142 26-06-2019 12:55:00 30.9 C 18.46 g/m*3 30.9 C 8.1 km/h
143 26-06-2019 13:00:00 31.1 C 18.34 g/m*3 31.1 C 8.1 km/h
144 26-06-2019 13:05:00 31.2 C 18.44 g/m*3 31.2 C 8.1 km/h
145 26-06-2019 13:10:00 31.3 C 18.21 g/m*3 31.3 C 6.4 km/h
146 26-06-2019 13:15:00 31.3 C 17.89 g/m*3 31.3 C 1.6 km/h
147 26-06-2019 13:20:00 31.4 C 17.66 g/m*3 31.4 C 8.1 km/h
148 26-06-2019 13:25:00 31.6 C 17.18 g/m*3 31.6 C 9.7 km/h
149 26-06-2019 13:30:00 31.7 C 15.95 g/m*3 31.7 C 8.1 km/h
150 26-06-2019 13:35:00 31.8 C 17.37 g/m*3 31.8 C 8.1 km/h
Sensor: Nr:Datum:Temp:Abs-Feuchte:Windchill:Wind:
Aussen-T/F 151 26-06-2019 13:40:00 31.9 C 17.8 g/m*3 31.9 C 9.7 km/h
152 26-06-2019 13:45:00 31.9 C 17.13 g/m*3 31.9 C 11.3 km/h
153 26-06-2019 13:50:00 32.2 C 17.4 g/m*3 32.2 C 8.1 km/h
154 26-06-2019 13:55:00 32.2 C 17.4 g/m*3 32.2 C 9.7 km/h
155 26-06-2019 14:00:00 32.3 C 17.49 g/m*3 32.3 C 8.1 km/h
156 26-06-2019 14:05:00 32.3 C 17.49 g/m*3 32.3 C 8.1 km/h
157 26-06-2019 14:10:00 32.3 C 17.49 g/m*3 32.3 C 9.7 km/h
158 26-06-2019 14:15:00 32.3 C 17.84 g/m*3 32.3 C 4.8 km/h
159 26-06-2019 14:20:00 32.4 C 17.59 g/m*3 32.4 C 9.7 km/h
160 26-06-2019 14:25:00 32.6 C 17.77 g/m*3 32.6 C 11.3 km/h
161 26-06-2019 14:30:00 32.7 C 17.17 g/m*3 32.7 C 9.7 km/h
162 26-06-2019 14:35:00 32.7 C 17.52 g/m*3 32.7 C 11.3 km/h
163 26-06-2019 14:40:00 32.9 C 17.7 g/m*3 32.9 C 12.9 km/h
164 26-06-2019 14:45:00 32.9 C 17.35 g/m*3 32.9 C 3.2 km/h
165 26-06-2019 14:50:00 33.1 C 17.89 g/m*3 33.1 C 11.3 km/h
166 26-06-2019 14:55:00 33.2 C 18.35 g/m*3 33.2 C 9.7 km/h
167 26-06-2019 15:00:00 33.4 C 18.91 g/m*3 33.4 C 11.3 km/h
168 26-06-2019 15:05:00 33.5 C 18.27 g/m*3 33.5 C 11.3 km/h
169 26-06-2019 15:10:00 33.4 C 17.81 g/m*3 33.4 C 9.7 km/h
170 26-06-2019 15:15:00 33.4 C 18.18 g/m*3 33.4 C 6.4 km/h
171 26-06-2019 15:20:00 33.6 C 18 g/m*3 33.6 C 11.3 km/h
172 26-06-2019 15:25:00 33.7 C 18.84 g/m*3 33.7 C 9.7 km/h
173 26-06-2019 15:30:00 33.9 C 19.04 g/m*3 33.9 C 9.7 km/h
174 26-06-2019 15:35:00 34.1 C 19.24 g/m*3 34.1 C 8.1 km/h
175 26-06-2019 15:40:00 34.3 C 18.68 g/m*3 34.3 C 11.3 km/h
Sensor: Nr:Datum:Temp:Abs-Feuchte:Windchill:Wind:
Aussen-T/F 176 26-06-2019 15:45:00 34.3 C 18.3 g/m*3 34.3 C 11.3 km/h
177 26-06-2019 15:50:00 34.5 C 18.49 g/m*3 34.5 C 8.1 km/h
178 26-06-2019 15:55:00 34.7 C 18.29 g/m*3 34.7 C 9.7 km/h
179 26-06-2019 16:00:00 34.7 C 19.07 g/m*3 34.7 C 9.7 km/h
180 26-06-2019 16:05:00 34.8 C 18.39 g/m*3 34.8 C 9.7 km/h
181 26-06-2019 16:10:00 34.8 C 17.61 g/m*3 34.8 C 14.5 km/h
182 26-06-2019 16:15:00 34.8 C 18.39 g/m*3 34.8 C 9.7 km/h
183 26-06-2019 16:20:00 34.9 C 18.09 g/m*3 34.9 C 11.3 km/h
184 26-06-2019 16:25:00 34.9 C 17.3 g/m*3 34.9 C 12.9 km/h
185 26-06-2019 16:30:00 34.8 C 17.61 g/m*3 34.8 C 9.7 km/h
186 26-06-2019 16:35:00 34.7 C 17.51 g/m*3 34.7 C 8.1 km/h
187 26-06-2019 16:40:00 34.6 C 17.81 g/m*3 34.6 C 14.5 km/h
188 26-06-2019 16:45:00 34.7 C 17.9 g/m*3 34.7 C 12.9 km/h
189 26-06-2019 16:50:00 34.7 C 17.51 g/m*3 34.7 C 11.3 km/h
190 26-06-2019 16:55:00 34.8 C 17.61 g/m*3 34.8 C 11.3 km/h
191 26-06-2019 17:00:00 34.9 C 17.3 g/m*3 34.9 C 9.7 km/h
192 26-06-2019 17:05:00 34.9 C 17.7 g/m*3 34.9 C 9.7 km/h
193 26-06-2019 17:10:00 35 C 17.79 g/m*3 35 C 11.3 km/h
194 26-06-2019 17:15:00 34.8 C 17.61 g/m*3 34.8 C 9.7 km/h
195 26-06-2019 17:20:00 34.8 C 17.21 g/m*3 34.8 C 9.7 km/h
196 26-06-2019 17:25:00 34.7 C 17.12 g/m*3 34.7 C 11.3 km/h
197 26-06-2019 17:30:00 34.7 C 17.12 g/m*3 34.7 C 11.3 km/h
198 26-06-2019 17:35:00 34.7 C 17.12 g/m*3 34.7 C 8.1 km/h
199 26-06-2019 17:40:00 34.8 C 16.82 g/m*3 34.8 C 14.5 km/h
200 26-06-2019 17:45:00 34.6 C 17.04 g/m*3 34.6 C 12.9 km/h
Sensor: Nr:Datum:Temp:Abs-Feuchte:Windchill:Wind:
Aussen-T/F 201 26-06-2019 17:50:00 34.6 C 17.04 g/m*3 34.6 C 12.9 km/h
202 26-06-2019 17:55:00 34.7 C 16.35 g/m*3 34.7 C 12.9 km/h
203 26-06-2019 18:00:00 34.6 C 16.26 g/m*3 34.6 C 9.7 km/h
204 26-06-2019 18:05:00 34.6 C 16.26 g/m*3 34.6 C 12.9 km/h
205 26-06-2019 18:10:00 34.7 C 15.96 g/m*3 34.7 C 9.7 km/h
206 26-06-2019 18:15:00 34.7 C 15.96 g/m*3 34.7 C 16.1 km/h
207 26-06-2019 18:20:00 34.6 C 16.26 g/m*3 34.6 C 11.3 km/h
208 26-06-2019 18:25:00 34.4 C 15.71 g/m*3 34.4 C 14.5 km/h
209 26-06-2019 18:30:00 34.3 C 16.01 g/m*3 34.3 C 11.3 km/h
210 26-06-2019 18:35:00 34.2 C 15.55 g/m*3 34.2 C 9.7 km/h
211 26-06-2019 18:40:00 34.1 C 15.84 g/m*3 34.1 C 9.7 km/h
212 26-06-2019 18:45:00 34.2 C 15.92 g/m*3 34.2 C 11.3 km/h
213 26-06-2019 18:50:00 34 C 16.13 g/m*3 34 C 16.1 km/h
214 26-06-2019 18:55:00 34 C 16.13 g/m*3 34 C 11.3 km/h
215 26-06-2019 19:00:00 33.9 C 16.42 g/m*3 33.9 C 11.3 km/h
216 26-06-2019 19:05:00 34.1 C 16.22 g/m*3 34.1 C 9.7 km/h
217 26-06-2019 19:10:00 34 C 16.13 g/m*3 34 C 14.5 km/h
218 26-06-2019 19:15:00 33.9 C 16.05 g/m*3 33.9 C 9.7 km/h
219 26-06-2019 19:20:00 33.9 C 16.05 g/m*3 33.9 C 11.3 km/h
220 26-06-2019 19:25:00 33.6 C 15.8 g/m*3 33.6 C 11.3 km/h
221 26-06-2019 19:30:00 33.4 C 16 g/m*3 33.4 C 9.7 km/h
222 26-06-2019 19:35:00 33.2 C 15.83 g/m*3 33.2 C 8.1 km/h
223 26-06-2019 19:40:00 32.9 C 15.58 g/m*3 32.9 C 11.3 km/h
224 26-06-2019 19:45:00 32.7 C 15.42 g/m*3 32.7 C 12.9 km/h
225 26-06-2019 19:50:00 32.5 C 15.25 g/m*3 32.5 C 9.7 km/h
Sensor: Nr:Datum:Temp:Abs-Feuchte:Windchill:Wind:
Aussen-T/F 226 26-06-2019 19:55:00 32.3 C 15.09 g/m*3 32.3 C 9.7 km/h
227 26-06-2019 20:00:00 32.2 C 15.35 g/m*3 32.2 C 8.1 km/h
228 26-06-2019 20:05:00 32.1 C 15.61 g/m*3 32.1 C 11.3 km/h
229 26-06-2019 20:10:00 31.9 C 15.45 g/m*3 31.9 C 9.7 km/h
230 26-06-2019 20:15:00 31.8 C 15.7 g/m*3 31.8 C 8.1 km/h
231 26-06-2019 20:20:00 31.6 C 16.19 g/m*3 31.6 C 12.9 km/h
232 26-06-2019 20:25:00 30.9 C 16.55 g/m*3 30.9 C 9.7 km/h
233 26-06-2019 20:30:00 30.3 C 16.03 g/m*3 30.3 C 8.1 km/h
234 26-06-2019 20:35:00 30.1 C 15.85 g/m*3 30.1 C 9.7 km/h
235 26-06-2019 20:40:00 30.1 C 16.46 g/m*3 30.1 C 6.4 km/h
236 26-06-2019 20:45:00 30.1 C 16.16 g/m*3 30.1 C 4.8 km/h
237 26-06-2019 20:50:00 30.1 C 16.46 g/m*3 30.1 C 3.2 km/h
238 26-06-2019 20:55:00 30.1 C 16.16 g/m*3 30.1 C 8.1 km/h
239 26-06-2019 21:00:00 29.9 C 15.99 g/m*3 29.9 C 1.6 km/h
240 26-06-2019 21:05:00 29.8 C 15.9 g/m*3 29.8 C 3.2 km/h
241 26-06-2019 21:10:00 29.7 C 16.11 g/m*3 29.7 C 1.6 km/h
242 26-06-2019 21:15:00 29.4 C 15.85 g/m*3 29.4 C 6.4 km/h
243 26-06-2019 21:20:00 29.2 C 16.26 g/m*3 29.2 C 4.8 km/h
244 26-06-2019 21:25:00 28.9 C 16.28 g/m*3 28.9 C 3.2 km/h
245 26-06-2019 21:30:00 28.7 C 15.82 g/m*3 28.7 C 4.8 km/h
246 26-06-2019 21:35:00 28.4 C 15.84 g/m*3 28.4 C 3.2 km/h
247 26-06-2019 21:40:00 28.3 C 16.03 g/m*3 28.3 C 1.6 km/h
248 26-06-2019 21:45:00 28 C 16.32 g/m*3 28 C 1.6 km/h
249 26-06-2019 21:50:00 27.7 C 15.78 g/m*3 27.7 C 1.6 km/h
250 26-06-2019 21:55:00 27.6 C 16.23 g/m*3 27.6 C 1.6 km/h
Sensor: Nr:Datum:Temp:Abs-Feuchte:Windchill:Wind:
Aussen-T/F 251 26-06-2019 22:00:00 27.4 C 16.05 g/m*3 27.4 C 1.6 km/h
252 26-06-2019 22:05:00 27.2 C 16.13 g/m*3 27.2 C 3.2 km/h
253 26-06-2019 22:10:00 26.9 C 16.12 g/m*3 26.9 C 1.6 km/h
254 26-06-2019 22:15:00 26.7 C 16.2 g/m*3 26.7 C 1.6 km/h
255 26-06-2019 22:20:00 26.5 C 16.27 g/m*3 26.5 C 3.2 km/h
256 26-06-2019 22:25:00 26.3 C 16.09 g/m*3 26.3 C 1.6 km/h
257 26-06-2019 22:30:00 26.2 C 16.25 g/m*3 26.2 C 8.1 km/h
258 26-06-2019 22:35:00 26.1 C 16.4 g/m*3 26.1 C 1.6 km/h
259 26-06-2019 22:40:00 25.9 C 16.22 g/m*3 25.9 C 0 km/h
260 26-06-2019 22:45:00 25.8 C 16.13 g/m*3 25.8 C 8.1 km/h
261 26-06-2019 22:50:00 25.9 C 16.46 g/m*3 25.9 C 1.6 km/h
262 26-06-2019 22:55:00 25.9 C 16.46 g/m*3 25.9 C 0 km/h
263 26-06-2019 23:00:00 25.8 C 16.37 g/m*3 25.8 C 1.6 km/h
264 26-06-2019 23:05:00 25.7 C 16.52 g/m*3 25.7 C 6.4 km/h
265 26-06-2019 23:10:00 25.8 C 16.61 g/m*3 25.8 C 11.3 km/h
266 26-06-2019 23:15:00 26 C 16.8 g/m*3 26 C 8.1 km/h
267 26-06-2019 23:20:00 26.2 C 16.74 g/m*3 26.2 C 3.2 km/h
268 26-06-2019 23:25:00 26.3 C 17.08 g/m*3 26.3 C 3.2 km/h
269 26-06-2019 23:30:00 26.2 C 16.99 g/m*3 26.2 C 3.2 km/h
270 26-06-2019 23:35:00 26.1 C 17.14 g/m*3 26.1 C 1.6 km/h
271 26-06-2019 23:40:00 26 C 17.04 g/m*3 26 C 12.9 km/h
272 26-06-2019 23:45:00 26.1 C 17.14 g/m*3 26.1 C 8.1 km/h
273 26-06-2019 23:50:00 26.1 C 17.14 g/m*3 26.1 C 6.4 km/h
274 26-06-2019 23:55:00 26.1 C 17.38 g/m*3 26.1 C 1.6 km/h

Legende:
   Min
   Max


Maximal/Minimal-Werte vom 26.06.2019 - 26.06.2019

Sensor Min Max Avg
Temp
(Aussen-T/F)
19.4 °C
26-06-2019  05:00:00
35 °C
26-06-2019  17:10:00
26.97 °C
Abs-Feuchte
(Aussen-T/F)
14.2 g/m*3
26-06-2019  00:05:00
19.88 g/m*3
26-06-2019  11:55:00
16.52 g/m*3
Windchill
(Aussen-T/F)
19.4 C
26-06-2019  05:00:00
35 C
26-06-2019  17:10:00
27.17 C

Die Daten stammen von einer Davis Vantage Pro 2 Wetter-Station und werden unter Linux mit der Software wview2wettercgi und aufbereitet. Alle Angaben erfolgen ohne Gewähr für ihre Vollständigkeit oder Richtigkeit.
Kontakt: Rainer Krienke krienke@uni-koblenz.de . Meine Webseiten an der Uni Koblenz oder privat.
Version: $Revision: 0.78 $